WetterOnline ( https://www.wetteronline.de )

Wetter aktuell Bohumín

Aktuelles Wetter: Ostrava (260m)

6-stündlich | Neueste Meldungen
Ortszeit Temperatur Wetter
Mo, 27.01. 1:00 -1.2° C bedeckt
So, 26.01. 19:00 -0.9° C bedeckt
So, 26.01. 13:00 -0.9° C bedeckt
So, 26.01. 7:00 -1.4° C bedeckt
So, 26.01. 1:00 -1.5° C bedeckt
Sa, 25.01. 19:00 -1.7° C bedeckt
Sa, 25.01. 13:00 -1.2° C bedeckt
Sa, 25.01. 7:00 -1.8° C bedeckt
Ortszeit Temperatur Wetter
Mo, 27.01. 5:00 -1.1° C bedeckt
Mo, 27.01. 4:30 -1° C bedeckt
Mo, 27.01. 4:00 -1.0° C bedeckt
Mo, 27.01. 3:30 -1° C bedeckt
Mo, 27.01. 3:00 -1.1° C bedeckt
Mo, 27.01. 2:30 -1° C bedeckt
Mo, 27.01. 2:00 -1.2° C bedeckt
Mo, 27.01. 1:30 -1° C bedeckt
Ortszeit Relative Feuchte Sichtweite
Mo, 27.01. 1:00 97% 5.0 km
So, 26.01. 19:00 94% 8 km
So, 26.01. 13:00 86% 7 km
So, 26.01. 7:00 92% 6 km
So, 26.01. 1:00 93% 6 km
Sa, 25.01. 19:00 89% 6 km
Sa, 25.01. 13:00 86% 6 km
Sa, 25.01. 7:00 88% 7 km
Ortszeit Relative Feuchte Sichtweite
Mo, 27.01. 5:00 92% 8 km
Mo, 27.01. 4:30 93% 8 km
Mo, 27.01. 4:00 92% 8 km
Mo, 27.01. 3:30 93% 7 km
Mo, 27.01. 3:00 93% 7 km
Mo, 27.01. 2:30 93% 7 km
Mo, 27.01. 2:00 95% 7 km
Mo, 27.01. 1:30 93% 7 km
Ortszeit Niederschlagsmenge Niederschlagsart
Mo, 27.01. 1:00 0.0 l/m2 in 6 Std. -
So, 26.01. 19:00 0.0 l/m2 in 12 Std. -
So, 26.01. 13:00 0.0 l/m2 in 6 Std. -
So, 26.01. 7:00 0.0 l/m2 in 12 Std. -
So, 26.01. 1:00 0.0 l/m2 in 6 Std. -
Sa, 25.01. 19:00 0.0 l/m2 in 12 Std. -
Sa, 25.01. 13:00 0.0 l/m2 in 6 Std. -
Sa, 25.01. 7:00 0.0 l/m2 in 12 Std. -
Ortszeit Niederschlagsmenge Niederschlagsart
Mo, 27.01. 5:00 0.0 l/m2 in 1 Std. -
Mo, 27.01. 4:30 keine Meldung -
Mo, 27.01. 4:00 0.0 l/m2 in 1 Std. -
Mo, 27.01. 3:30 keine Meldung -
Mo, 27.01. 3:00 0.0 l/m2 in 1 Std. -
Mo, 27.01. 2:30 keine Meldung -
Mo, 27.01. 2:00 0.0 l/m2 in 1 Std. -
Mo, 27.01. 1:30 keine Meldung -
Ortszeit Stärke Spitze Richtung
km/h Bft. km/h Grad Sektor
Mo, 27.01. 1:00 32 5 43 230° SW
So, 26.01. 19:00 29 5 43 230° SW
So, 26.01. 13:00 36 5 47 240° SW
So, 26.01. 7:00 25 4 40 220° SW
So, 26.01. 1:00 22 4 - 230° SW
Sa, 25.01. 19:00 22 4 43 230° SW
Sa, 25.01. 13:00 25 4 40 220° SW
Sa, 25.01. 7:00 25 4 40 230° SW
Ortszeit Stärke Spitze Richtung
km/h Bft. km/h Grad Sektor
Mo, 27.01. 5:00 29 5 - 230° SW
Mo, 27.01. 4:30 26 4 - 230° SW
Mo, 27.01. 4:00 25 4 43 230° SW
Mo, 27.01. 3:30 28 4 - 230° SW
Mo, 27.01. 3:00 29 5 40 230° SW
Mo, 27.01. 2:30 28 4 - 230° SW
Mo, 27.01. 2:00 29 5 43 230° SW
Mo, 27.01. 1:30 33 5 - 230° SW
Ortszeit Untergrenze Bedeckung Gattung
total tief tief mittel hoch
Mo, 27.01. 1:00 120 m 8/8 8/8 St - -
So, 26.01. 19:00 180 m 8/8 8/8 St - -
So, 26.01. 13:00 300 m 8/8 8/8 St - -
So, 26.01. 7:00 180 m 8/8 8/8 St - -
So, 26.01. 1:00 180 m 8/8 8/8 St - -
Sa, 25.01. 19:00 270 m 8/8 8/8 St - -
Sa, 25.01. 13:00 270 m 8/8 8/8 St - -
Sa, 25.01. 7:00 270 m 8/8 8/8 St - -
Ortszeit Bedeckungsgrad in Achtel und Wolkenuntergrenze
Mo, 27.01. 5:00 4(240m) 8(2700m)
Mo, 27.01. 4:30 8(240m)
Mo, 27.01. 4:00 8(240m)
Mo, 27.01. 3:30 8(180m)
Mo, 27.01. 3:00 8(180m)
Mo, 27.01. 2:30 8(180m)
Mo, 27.01. 2:00 8(180m)
Mo, 27.01. 1:30 8(150m)
Ortszeit Luftdruck NN (hPa) Tendenz (hPa in 3 Std.)
Mo, 27.01. 1:00 1021 - 0,6
So, 26.01. 19:00 1022 0,0
So, 26.01. 13:00 1022 - 1,2
So, 26.01. 7:00 1023 + 0,1
So, 26.01. 1:00 1024 - 0,8
Sa, 25.01. 19:00 1024 + 1,3
Sa, 25.01. 13:00 1024 - 0,6
Sa, 25.01. 7:00 1024 0,0
Ortszeit Luftdruck NN (hPa) Tendenz (hPa in 3 Std.)
Mo, 27.01. 5:00 1020 - 0,9
Mo, 27.01. 4:30 1018 keine Meldung
Mo, 27.01. 4:00 1020 - 0,9
Mo, 27.01. 3:30 1018 keine Meldung
Mo, 27.01. 3:00 1020 - 0,8
Mo, 27.01. 2:30 1018 keine Meldung
Mo, 27.01. 2:00 1021 - 0,5
Mo, 27.01. 1:30 1019 keine Meldung
Ortszeit Schneehöhe (cm)
Mo, 27.01. 1:00 -
So, 26.01. 19:00 0
So, 26.01. 13:00 -
So, 26.01. 7:00 -
So, 26.01. 1:00 -
Sa, 25.01. 19:00 0
Sa, 25.01. 13:00 -
Sa, 25.01. 7:00 -
Ortszeit Schneehöhe (cm)
Mo, 27.01. 5:00 -
Mo, 27.01. 4:30 -
Mo, 27.01. 4:00 -
Mo, 27.01. 3:30 -
Mo, 27.01. 3:00 -
Mo, 27.01. 2:30 -
Mo, 27.01. 2:00 -
Mo, 27.01. 1:30 -
Link zu dieser Seite / Seite empfehlen

Das Wetter in ...